sensor_id;sensor_type;location;lat;lon;timestamp;temperature;humidity
54516;DHT22;40422;45.892;4.738;2023-08-01T03:02:57;21.00;98.50
54516;DHT22;40422;45.892;4.738;2023-08-01T03:05:22;21.00;98.60
54516;DHT22;40422;45.892;4.738;2023-08-01T03:07:48;21.10;98.50
54516;DHT22;40422;45.892;4.738;2023-08-01T03:10:13;21.10;98.20
54516;DHT22;40422;45.892;4.738;2023-08-01T03:12:39;21.10;96.90
54516;DHT22;40422;45.892;4.738;2023-08-01T03:15:05;21.20;96.90
54516;DHT22;40422;45.892;4.738;2023-08-01T03:17:34;21.30;96.60
54516;DHT22;40422;45.892;4.738;2023-08-01T03:19:59;21.40;94.60
54516;DHT22;40422;45.892;4.738;2023-08-01T03:22:25;21.50;94.30
54516;DHT22;40422;45.892;4.738;2023-08-01T03:24:50;21.60;93.60
54516;DHT22;40422;45.892;4.738;2023-08-01T03:27:16;21.70;94.30
54516;DHT22;40422;45.892;4.738;2023-08-01T03:29:42;21.70;94.30
54516;DHT22;40422;45.892;4.738;2023-08-01T03:32:07;21.80;94.70
54516;DHT22;40422;45.892;4.738;2023-08-01T03:34:33;21.80;95.10
54516;DHT22;40422;45.892;4.738;2023-08-01T03:36:58;21.80;95.10
54516;DHT22;40422;45.892;4.738;2023-08-01T03:39:24;21.80;94.50
54516;DHT22;40422;45.892;4.738;2023-08-01T03:41:50;21.70;94.80
54516;DHT22;40422;45.892;4.738;2023-08-01T03:44:16;21.80;94.50
54516;DHT22;40422;45.892;4.738;2023-08-01T03:46:42;21.70;94.50
54516;DHT22;40422;45.892;4.738;2023-08-01T03:49:08;21.70;94.90
54516;DHT22;40422;45.892;4.738;2023-08-01T03:51:34;21.80;95.00
54516;DHT22;40422;45.892;4.738;2023-08-01T03:54:00;21.80;95.00
54516;DHT22;40422;45.892;4.738;2023-08-01T03:56:25;21.70;94.30
54516;DHT22;40422;45.892;4.738;2023-08-01T03:58:52;21.70;94.30
54516;DHT22;40422;45.892;4.738;2023-08-01T04:01:18;21.80;93.90
54516;DHT22;40422;45.892;4.738;2023-08-01T04:03:44;21.80;94.00
54516;DHT22;40422;45.892;4.738;2023-08-01T04:06:09;21.80;94.00
54516;DHT22;40422;45.892;4.738;2023-08-01T04:08:36;21.90;93.70
54516;DHT22;40422;45.892;4.738;2023-08-01T04:11:01;21.90;93.60
54516;DHT22;40422;45.892;4.738;2023-08-01T04:13:27;21.90;93.50
54516;DHT22;40422;45.892;4.738;2023-08-01T04:15:53;21.90;93.20
54516;DHT22;40422;45.892;4.738;2023-08-01T04:18:18;22.00;93.10
54516;DHT22;40422;45.892;4.738;2023-08-01T04:20:44;22.00;93.00
54516;DHT22;40422;45.892;4.738;2023-08-01T04:23:09;22.00;92.70
54516;DHT22;40422;45.892;4.738;2023-08-01T04:25:35;22.00;92.60
54516;DHT22;40422;45.892;4.738;2023-08-01T04:28:01;22.00;92.20
54516;DHT22;40422;45.892;4.738;2023-08-01T04:30:26;22.00;92.20
54516;DHT22;40422;45.892;4.738;2023-08-01T04:32:52;22.00;92.20
54516;DHT22;40422;45.892;4.738;2023-08-01T04:35:17;22.10;92.10
54516;DHT22;40422;45.892;4.738;2023-08-01T04:37:43;22.10;92.50
54516;DHT22;40422;45.892;4.738;2023-08-01T04:40:09;22.20;92.40
54516;DHT22;40422;45.892;4.738;2023-08-01T04:42:34;22.20;92.40
54516;DHT22;40422;45.892;4.738;2023-08-01T04:45:00;22.20;92.70
54516;DHT22;40422;45.892;4.738;2023-08-01T04:47:25;22.10;92.80
54516;DHT22;40422;45.892;4.738;2023-08-01T04:49:51;22.10;92.20
54516;DHT22;40422;45.892;4.738;2023-08-01T04:52:17;22.10;92.10
54516;DHT22;40422;45.892;4.738;2023-08-01T04:54:42;22.10;92.90
54516;DHT22;40422;45.892;4.738;2023-08-01T04:57:08;22.10;92.40
54516;DHT22;40422;45.892;4.738;2023-08-01T04:59:33;22.10;92.70
54516;DHT22;40422;45.892;4.738;2023-08-01T05:01:59;22.10;93.10
54516;DHT22;40422;45.892;4.738;2023-08-01T05:04:24;22.10;92.60
54516;DHT22;40422;45.892;4.738;2023-08-01T05:06:50;22.10;92.80
54516;DHT22;40422;45.892;4.738;2023-08-01T05:09:16;22.20;93.20
54516;DHT22;40422;45.892;4.738;2023-08-01T05:11:41;22.20;92.50
54516;DHT22;40422;45.892;4.738;2023-08-01T05:14:07;22.30;92.60
54516;DHT22;40422;45.892;4.738;2023-08-01T05:16:32;22.30;92.50
54516;DHT22;40422;45.892;4.738;2023-08-01T05:18:58;22.40;92.90
54516;DHT22;40422;45.892;4.738;2023-08-01T05:21:24;22.40;93.00
54516;DHT22;40422;45.892;4.738;2023-08-01T05:23:50;22.50;92.80
54516;DHT22;40422;45.892;4.738;2023-08-01T05:26:16;22.60;93.10
54516;DHT22;40422;45.892;4.738;2023-08-01T05:28:41;22.60;94.40
54516;DHT22;40422;45.892;4.738;2023-08-01T05:31:07;22.80;93.70
54516;DHT22;40422;45.892;4.738;2023-08-01T05:33:33;22.80;94.50
54516;DHT22;40422;45.892;4.738;2023-08-01T05:35:58;22.90;94.50
54516;DHT22;40422;45.892;4.738;2023-08-01T05:38:24;23.00;93.50
54516;DHT22;40422;45.892;4.738;2023-08-01T05:40:49;23.00;93.70
54516;DHT22;40422;45.892;4.738;2023-08-01T05:43:15;23.00;93.80
54516;DHT22;40422;45.892;4.738;2023-08-01T05:45:41;23.00;93.40
54516;DHT22;40422;45.892;4.738;2023-08-01T05:48:06;23.10;93.80
54516;DHT22;40422;45.892;4.738;2023-08-01T05:50:32;23.10;93.40
54516;DHT22;40422;45.892;4.738;2023-08-01T05:52:58;23.20;93.70
54516;DHT22;40422;45.892;4.738;2023-08-01T05:55:23;23.30;93.10
54516;DHT22;40422;45.892;4.738;2023-08-01T05:57:49;23.30;93.80
54516;DHT22;40422;45.892;4.738;2023-08-01T06:00:18;23.30;93.50
54516;DHT22;40422;45.892;4.738;2023-08-01T06:02:46;23.30;93.60
54516;DHT22;40422;45.892;4.738;2023-08-01T06:05:12;23.40;92.90
54516;DHT22;40422;45.892;4.738;2023-08-01T06:07:37;23.50;92.90
54516;DHT22;40422;45.892;4.738;2023-08-01T06:10:03;23.50;92.50
54516;DHT22;40422;45.892;4.738;2023-08-01T06:12:29;23.60;92.80
54516;DHT22;40422;45.892;4.738;2023-08-01T06:14:55;23.60;92.50
54516;DHT22;40422;45.892;4.738;2023-08-01T06:17:21;23.60;92.60
54516;DHT22;40422;45.892;4.738;2023-08-01T06:19:46;23.70;92.40
54516;DHT22;40422;45.892;4.738;2023-08-01T06:22:12;23.70;92.20
54516;DHT22;40422;45.892;4.738;2023-08-01T06:24:38;23.80;91.90
54516;DHT22;40422;45.892;4.738;2023-08-01T06:27:04;23.70;91.90
54516;DHT22;40422;45.892;4.738;2023-08-01T06:29:30;23.80;91.90
54516;DHT22;40422;45.892;4.738;2023-08-01T06:31:56;23.80;91.70
54516;DHT22;40422;45.892;4.738;2023-08-01T06:34:22;23.80;91.80
54516;DHT22;40422;45.892;4.738;2023-08-01T06:36:47;23.80;91.80
54516;DHT22;40422;45.892;4.738;2023-08-01T06:39:13;23.80;91.60
54516;DHT22;40422;45.892;4.738;2023-08-01T06:41:39;23.80;91.30
54516;DHT22;40422;45.892;4.738;2023-08-01T06:44:04;23.80;90.70
54516;DHT22;40422;45.892;4.738;2023-08-01T06:46:30;23.80;90.60
54516;DHT22;40422;45.892;4.738;2023-08-01T06:48:56;23.80;90.30
54516;DHT22;40422;45.892;4.738;2023-08-01T06:51:21;23.70;88.20
54516;DHT22;40422;45.892;4.738;2023-08-01T06:53:47;23.60;88.90
54516;DHT22;40422;45.892;4.738;2023-08-01T06:56:12;23.60;88.50
54516;DHT22;40422;45.892;4.738;2023-08-01T06:58:38;23.60;88.60
54516;DHT22;40422;45.892;4.738;2023-08-01T07:01:04;23.60;87.70
54516;DHT22;40422;45.892;4.738;2023-08-01T07:03:29;23.70;87.10
54516;DHT22;40422;45.892;4.738;2023-08-01T07:05:55;23.70;87.10
54516;DHT22;40422;45.892;4.738;2023-08-01T07:08:20;23.70;85.80
54516;DHT22;40422;45.892;4.738;2023-08-01T07:10:46;23.80;86.30
54516;DHT22;40422;45.892;4.738;2023-08-01T07:13:12;23.90;86.50
54516;DHT22;40422;45.892;4.738;2023-08-01T07:15:38;23.90;86.80
54516;DHT22;40422;45.892;4.738;2023-08-01T07:18:03;23.90;86.70
54516;DHT22;40422;45.892;4.738;2023-08-01T07:20:29;23.90;85.30
54516;DHT22;40422;45.892;4.738;2023-08-01T07:22:55;23.90;84.80
54516;DHT22;40422;45.892;4.738;2023-08-01T07:25:20;24.00;86.20
54516;DHT22;40422;45.892;4.738;2023-08-01T07:27:47;24.00;86.30
54516;DHT22;40422;45.892;4.738;2023-08-01T07:30:13;24.00;86.60
54516;DHT22;40422;45.892;4.738;2023-08-01T07:32:38;24.10;86.20
54516;DHT22;40422;45.892;4.738;2023-08-01T07:35:05;24.10;86.70
54516;DHT22;40422;45.892;4.738;2023-08-01T07:37:32;24.20;87.00
54516;DHT22;40422;45.892;4.738;2023-08-01T07:39:58;24.30;86.40
54516;DHT22;40422;45.892;4.738;2023-08-01T07:42:24;24.30;86.70
54516;DHT22;40422;45.892;4.738;2023-08-01T07:44:49;24.40;86.40
54516;DHT22;40422;45.892;4.738;2023-08-01T07:47:15;24.50;87.10
54516;DHT22;40422;45.892;4.738;2023-08-01T07:49:40;24.60;86.00
54516;DHT22;40422;45.892;4.738;2023-08-01T07:52:06;24.70;86.90
54516;DHT22;40422;45.892;4.738;2023-08-01T07:54:32;24.70;85.80
54516;DHT22;40422;45.892;4.738;2023-08-01T07:56:58;24.70;86.80
54516;DHT22;40422;45.892;4.738;2023-08-01T07:59:23;24.80;86.00
54516;DHT22;40422;45.892;4.738;2023-08-01T08:01:49;24.80;86.40
54516;DHT22;40422;45.892;4.738;2023-08-01T08:04:14;24.80;86.50
54516;DHT22;40422;45.892;4.738;2023-08-01T08:06:40;24.90;86.30
54516;DHT22;40422;45.892;4.738;2023-08-01T08:09:06;25.00;87.20
54516;DHT22;40422;45.892;4.738;2023-08-01T08:11:32;25.00;86.70
54516;DHT22;40422;45.892;4.738;2023-08-01T08:13:59;25.00;87.20
54516;DHT22;40422;45.892;4.738;2023-08-01T08:16:24;25.00;87.40
54516;DHT22;40422;45.892;4.738;2023-08-01T08:18:50;25.20;87.60
54516;DHT22;40422;45.892;4.738;2023-08-01T08:21:16;25.30;87.30
54516;DHT22;40422;45.892;4.738;2023-08-01T08:23:41;25.50;87.90
54516;DHT22;40422;45.892;4.738;2023-08-01T08:26:07;25.60;86.90
54516;DHT22;40422;45.892;4.738;2023-08-01T08:28:33;25.80;87.30
54516;DHT22;40422;45.892;4.738;2023-08-01T08:30:59;25.90;87.50
54516;DHT22;40422;45.892;4.738;2023-08-01T08:33:25;25.90;87.00
54516;DHT22;40422;45.892;4.738;2023-08-01T08:35:51;26.00;86.30
54516;DHT22;40422;45.892;4.738;2023-08-01T08:38:18;26.20;87.30
54516;DHT22;40422;45.892;4.738;2023-08-01T08:41:05;26.20;86.60
54516;DHT22;40422;45.892;4.738;2023-08-01T08:43:33;26.00;87.30
54516;DHT22;40422;45.892;4.738;2023-08-01T08:46:01;26.00;88.80
54516;DHT22;40422;45.892;4.738;2023-08-01T08:48:26;26.10;87.90
54516;DHT22;40422;45.892;4.738;2023-08-01T08:50:55;26.00;88.20
54516;DHT22;40422;45.892;4.738;2023-08-01T08:53:22;26.10;88.20
54516;DHT22;40422;45.892;4.738;2023-08-01T08:55:48;26.10;87.10
54516;DHT22;40422;45.892;4.738;2023-08-01T08:58:15;26.20;88.00
54516;DHT22;40422;45.892;4.738;2023-08-01T09:00:42;26.10;87.30
54516;DHT22;40422;45.892;4.738;2023-08-01T09:03:08;26.10;87.50
54516;DHT22;40422;45.892;4.738;2023-08-01T09:05:44;26.10;88.10
54516;DHT22;40422;45.892;4.738;2023-08-01T09:08:16;26.50;87.40
54516;DHT22;40422;45.892;4.738;2023-08-01T09:10:43;26.50;86.70
54516;DHT22;40422;45.892;4.738;2023-08-01T09:13:08;26.50;87.70
54516;DHT22;40422;45.892;4.738;2023-08-01T09:15:35;26.40;86.90
54516;DHT22;40422;45.892;4.738;2023-08-01T09:18:06;26.40;88.30
54516;DHT22;40422;45.892;4.738;2023-08-01T09:20:52;26.50;86.80
54516;DHT22;40422;45.892;4.738;2023-08-01T09:23:18;26.50;87.70
54516;DHT22;40422;45.892;4.738;2023-08-01T09:25:44;26.60;86.40
54516;DHT22;40422;45.892;4.738;2023-08-01T09:28:22;26.60;86.20
54516;DHT22;40422;45.892;4.738;2023-08-01T09:30:52;26.50;86.20
54516;DHT22;40422;45.892;4.738;2023-08-01T09:33:20;26.70;87.20
54516;DHT22;40422;45.892;4.738;2023-08-01T09:35:48;26.90;85.10
54516;DHT22;40422;45.892;4.738;2023-08-01T09:38:14;26.70;86.60
54516;DHT22;40422;45.892;4.738;2023-08-01T09:40:41;26.90;86.70
54516;DHT22;40422;45.892;4.738;2023-08-01T09:43:08;27.10;86.10
54516;DHT22;40422;45.892;4.738;2023-08-01T09:45:33;27.10;85.90
54516;DHT22;40422;45.892;4.738;2023-08-01T09:48:00;27.10;86.00
54516;DHT22;40422;45.892;4.738;2023-08-01T09:50:26;27.00;85.80
54516;DHT22;40422;45.892;4.738;2023-08-01T09:52:52;26.80;85.10
54516;DHT22;40422;45.892;4.738;2023-08-01T09:55:29;26.60;86.50
54516;DHT22;40422;45.892;4.738;2023-08-01T09:57:57;26.20;90.00
54516;DHT22;40422;45.892;4.738;2023-08-01T10:00:27;25.70;92.20
54516;DHT22;40422;45.892;4.738;2023-08-01T10:02:59;25.30;93.40
54516;DHT22;40422;45.892;4.738;2023-08-01T10:05:32;25.10;94.30
54516;DHT22;40422;45.892;4.738;2023-08-01T10:08:01;25.00;95.70
54516;DHT22;40422;45.892;4.738;2023-08-01T10:10:28;25.00;96.60
54516;DHT22;40422;45.892;4.738;2023-08-01T10:12:56;25.00;95.60
54516;DHT22;40422;45.892;4.738;2023-08-01T10:15:25;25.20;95.30
54516;DHT22;40422;45.892;4.738;2023-08-01T10:17:51;25.50;93.70
54516;DHT22;40422;45.892;4.738;2023-08-01T10:20:18;25.80;94.60
54516;DHT22;40422;45.892;4.738;2023-08-01T10:22:45;26.10;94.50
54516;DHT22;40422;45.892;4.738;2023-08-01T10:25:12;26.50;93.50
54516;DHT22;40422;45.892;4.738;2023-08-01T10:27:37;26.80;91.80
54516;DHT22;40422;45.892;4.738;2023-08-01T10:30:04;26.90;91.70
54516;DHT22;40422;45.892;4.738;2023-08-01T10:32:37;26.90;91.60
54516;DHT22;40422;45.892;4.738;2023-08-01T10:35:03;26.70;91.30
54516;DHT22;40422;45.892;4.738;2023-08-01T10:37:41;26.60;91.00
54516;DHT22;40422;45.892;4.738;2023-08-01T10:40:08;26.80;91.70
54516;DHT22;40422;45.892;4.738;2023-08-01T10:42:40;27.00;91.20
54516;DHT22;40422;45.892;4.738;2023-08-01T10:45:08;27.00;89.30
54516;DHT22;40422;45.892;4.738;2023-08-01T10:47:44;27.00;90.50
54516;DHT22;40422;45.892;4.738;2023-08-01T10:50:14;27.00;89.70
54516;DHT22;40422;45.892;4.738;2023-08-01T10:52:41;27.00;90.20
54516;DHT22;40422;45.892;4.738;2023-08-01T10:55:07;27.00;89.00
54516;DHT22;40422;45.892;4.738;2023-08-01T10:57:35;27.00;89.50
54516;DHT22;40422;45.892;4.738;2023-08-01T11:00:02;26.90;89.30
54516;DHT22;40422;45.892;4.738;2023-08-01T11:02:30;26.80;90.20
54516;DHT22;40422;45.892;4.738;2023-08-01T11:05:04;26.80;90.70
54516;DHT22;40422;45.892;4.738;2023-08-01T11:07:32;26.90;90.30
54516;DHT22;40422;45.892;4.738;2023-08-01T11:10:04;27.00;90.70
54516;DHT22;40422;45.892;4.738;2023-08-01T11:12:35;27.40;87.50
54516;DHT22;40422;45.892;4.738;2023-08-01T11:15:01;27.80;86.60
54516;DHT22;40422;45.892;4.738;2023-08-01T11:17:27;28.20;85.50
54516;DHT22;40422;45.892;4.738;2023-08-01T11:20:00;28.60;83.00
54516;DHT22;40422;45.892;4.738;2023-08-01T11:22:26;28.70;81.10
54516;DHT22;40422;45.892;4.738;2023-08-01T11:24:52;28.50;81.80
54516;DHT22;40422;45.892;4.738;2023-08-01T11:27:18;28.10;81.20
54516;DHT22;40422;45.892;4.738;2023-08-01T11:29:44;28.00;82.30
54516;DHT22;40422;45.892;4.738;2023-08-01T11:32:09;28.40;80.30
54516;DHT22;40422;45.892;4.738;2023-08-01T11:34:42;28.50;79.70
54516;DHT22;40422;45.892;4.738;2023-08-01T11:37:14;28.80;79.40
54516;DHT22;40422;45.892;4.738;2023-08-01T11:39:40;29.10;79.00
54516;DHT22;40422;45.892;4.738;2023-08-01T11:42:06;28.80;79.50
54516;DHT22;40422;45.892;4.738;2023-08-01T11:44:32;28.50;79.60
54516;DHT22;40422;45.892;4.738;2023-08-01T11:46:57;28.40;79.70
54516;DHT22;40422;45.892;4.738;2023-08-01T11:49:23;28.50;77.70
54516;DHT22;40422;45.892;4.738;2023-08-01T11:51:49;28.50;79.80
54516;DHT22;40422;45.892;4.738;2023-08-01T11:54:15;28.50;78.70
54516;DHT22;40422;45.892;4.738;2023-08-01T11:56:42;28.20;79.50
54516;DHT22;40422;45.892;4.738;2023-08-01T11:59:10;27.90;80.80
54516;DHT22;40422;45.892;4.738;2023-08-01T12:01:46;27.50;81.40
54516;DHT22;40422;45.892;4.738;2023-08-01T12:04:23;27.20;82.20
54516;DHT22;40422;45.892;4.738;2023-08-01T12:06:48;27.00;83.00
54516;DHT22;40422;45.892;4.738;2023-08-01T12:09:14;26.90;83.60
54516;DHT22;40422;45.892;4.738;2023-08-01T12:11:41;26.80;83.60
54516;DHT22;40422;45.892;4.738;2023-08-01T12:14:14;26.70;84.30
54516;DHT22;40422;45.892;4.738;2023-08-01T12:16:41;26.70;84.60
54516;DHT22;40422;45.892;4.738;2023-08-01T12:19:08;26.80;84.90
54516;DHT22;40422;45.892;4.738;2023-08-01T12:21:34;27.00;85.40
54516;DHT22;40422;45.892;4.738;2023-08-01T12:24:01;27.20;84.70
54516;DHT22;40422;45.892;4.738;2023-08-01T12:26:26;27.10;84.90
54516;DHT22;40422;45.892;4.738;2023-08-01T12:28:52;26.90;86.30
54516;DHT22;40422;45.892;4.738;2023-08-01T12:31:19;26.90;86.90
54516;DHT22;40422;45.892;4.738;2023-08-01T12:33:45;26.90;87.30
54516;DHT22;40422;45.892;4.738;2023-08-01T12:36:11;27.20;84.80
54516;DHT22;40422;45.892;4.738;2023-08-01T12:38:38;27.30;84.50
54516;DHT22;40422;45.892;4.738;2023-08-01T12:41:06;27.50;84.70
54516;DHT22;40422;45.892;4.738;2023-08-01T12:43:33;28.00;81.00
54516;DHT22;40422;45.892;4.738;2023-08-01T12:45:59;28.10;80.70
54516;DHT22;40422;45.892;4.738;2023-08-01T12:48:25;27.90;79.20
54516;DHT22;40422;45.892;4.738;2023-08-01T12:50:51;28.10;81.10
54516;DHT22;40422;45.892;4.738;2023-08-01T12:53:17;28.70;80.90
54516;DHT22;40422;45.892;4.738;2023-08-01T12:55:47;28.80;76.30
54516;DHT22;40422;45.892;4.738;2023-08-01T12:58:13;28.70;75.80
54516;DHT22;40422;45.892;4.738;2023-08-01T13:00:40;28.30;74.60
54516;DHT22;40422;45.892;4.738;2023-08-01T13:03:06;28.30;75.90
54516;DHT22;40422;45.892;4.738;2023-08-01T13:05:35;28.00;75.90
54516;DHT22;40422;45.892;4.738;2023-08-01T13:08:02;28.10;76.80
54516;DHT22;40422;45.892;4.738;2023-08-01T13:10:34;28.30;76.20
54516;DHT22;40422;45.892;4.738;2023-08-01T13:13:00;28.80;76.70
54516;DHT22;40422;45.892;4.738;2023-08-01T13:15:26;29.00;74.90
54516;DHT22;40422;45.892;4.738;2023-08-01T13:17:52;29.20;75.80
54516;DHT22;40422;45.892;4.738;2023-08-01T13:20:18;29.40;75.00
54516;DHT22;40422;45.892;4.738;2023-08-01T13:22:46;29.60;72.90
54516;DHT22;40422;45.892;4.738;2023-08-01T13:25:13;29.80;74.30
54516;DHT22;40422;45.892;4.738;2023-08-01T13:27:39;30.20;73.80
54516;DHT22;40422;45.892;4.738;2023-08-01T13:30:05;30.40;72.70
54516;DHT22;40422;45.892;4.738;2023-08-01T13:32:31;30.50;73.20
54516;DHT22;40422;45.892;4.738;2023-08-01T13:34:57;30.60;73.40
54516;DHT22;40422;45.892;4.738;2023-08-01T13:37:22;30.50;72.70
54516;DHT22;40422;45.892;4.738;2023-08-01T13:39:48;30.60;75.00
54516;DHT22;40422;45.892;4.738;2023-08-01T13:42:14;30.60;73.10
54516;DHT22;40422;45.892;4.738;2023-08-01T13:44:40;30.50;73.30
54516;DHT22;40422;45.892;4.738;2023-08-01T13:47:06;30.80;73.10
54516;DHT22;40422;45.892;4.738;2023-08-01T13:49:31;30.90;74.70
54516;DHT22;40422;45.892;4.738;2023-08-01T13:51:58;30.90;78.10
54516;DHT22;40422;45.892;4.738;2023-08-01T13:54:24;30.60;78.40
54516;DHT22;40422;45.892;4.738;2023-08-01T13:56:49;30.40;79.80
54516;DHT22;40422;45.892;4.738;2023-08-01T13:59:15;30.30;77.30
54516;DHT22;40422;45.892;4.738;2023-08-01T14:01:41;30.20;76.60
54516;DHT22;40422;45.892;4.738;2023-08-01T14:04:06;29.80;76.50
54516;DHT22;40422;45.892;4.738;2023-08-01T14:06:32;29.70;77.50
54516;DHT22;40422;45.892;4.738;2023-08-01T14:08:57;29.80;76.80
54516;DHT22;40422;45.892;4.738;2023-08-01T14:11:23;29.80;78.60
54516;DHT22;40422;45.892;4.738;2023-08-01T14:13:49;29.60;76.70
54516;DHT22;40422;45.892;4.738;2023-08-01T14:16:14;29.30;77.40
54516;DHT22;40422;45.892;4.738;2023-08-01T14:18:42;29.10;75.50
54516;DHT22;40422;45.892;4.738;2023-08-01T14:21:08;29.30;76.70
54516;DHT22;40422;45.892;4.738;2023-08-01T14:23:33;29.60;76.70
54516;DHT22;40422;45.892;4.738;2023-08-01T14:25:59;29.70;75.80
54516;DHT22;40422;45.892;4.738;2023-08-01T14:28:25;29.70;76.60
54516;DHT22;40422;45.892;4.738;2023-08-01T14:30:50;29.70;75.80
54516;DHT22;40422;45.892;4.738;2023-08-01T14:33:16;29.50;76.70
54516;DHT22;40422;45.892;4.738;2023-08-01T14:35:41;29.50;76.70
54516;DHT22;40422;45.892;4.738;2023-08-01T14:38:08;29.70;77.40
54516;DHT22;40422;45.892;4.738;2023-08-01T14:40:34;29.50;76.60
54516;DHT22;40422;45.892;4.738;2023-08-01T14:43:01;29.30;77.90
54516;DHT22;40422;45.892;4.738;2023-08-01T14:45:27;29.40;77.40
54516;DHT22;40422;45.892;4.738;2023-08-01T14:47:55;29.30;76.20
54516;DHT22;40422;45.892;4.738;2023-08-01T14:50:21;29.00;75.90
54516;DHT22;40422;45.892;4.738;2023-08-01T14:52:47;28.90;78.30
54516;DHT22;40422;45.892;4.738;2023-08-01T14:55:12;28.60;76.60
54516;DHT22;40422;45.892;4.738;2023-08-01T14:57:38;28.30;77.50
54516;DHT22;40422;45.892;4.738;2023-08-01T15:00:04;28.20;78.90
54516;DHT22;40422;45.892;4.738;2023-08-01T15:02:30;28.40;79.80
54516;DHT22;40422;45.892;4.738;2023-08-01T15:04:56;28.20;78.70
54516;DHT22;40422;45.892;4.738;2023-08-01T15:07:23;28.30;78.60
54516;DHT22;40422;45.892;4.738;2023-08-01T15:09:49;28.10;79.50
54516;DHT22;40422;45.892;4.738;2023-08-01T15:12:16;28.10;79.80
54516;DHT22;40422;45.892;4.738;2023-08-01T15:14:42;28.10;79.80
54516;DHT22;40422;45.892;4.738;2023-08-01T15:17:07;28.00;80.30
54516;DHT22;40422;45.892;4.738;2023-08-01T15:19:34;28.00;79.10
54516;DHT22;40422;45.892;4.738;2023-08-01T15:22:01;27.90;79.70
54516;DHT22;40422;45.892;4.738;2023-08-01T15:24:26;27.60;79.50
54516;DHT22;40422;45.892;4.738;2023-08-01T15:26:52;27.50;81.10
54516;DHT22;40422;45.892;4.738;2023-08-01T15:29:17;27.50;80.50
54516;DHT22;40422;45.892;4.738;2023-08-01T15:31:43;27.40;80.70
54516;DHT22;40422;45.892;4.738;2023-08-01T15:34:09;27.30;80.90
54516;DHT22;40422;45.892;4.738;2023-08-01T15:36:34;27.30;80.70
54516;DHT22;40422;45.892;4.738;2023-08-01T15:39:00;27.30;81.30
54516;DHT22;40422;45.892;4.738;2023-08-01T15:41:26;27.30;81.10
54516;DHT22;40422;45.892;4.738;2023-08-01T15:43:53;27.30;81.80
54516;DHT22;40422;45.892;4.738;2023-08-01T15:46:18;27.10;80.50
54516;DHT22;40422;45.892;4.738;2023-08-01T15:48:44;26.90;80.40
54516;DHT22;40422;45.892;4.738;2023-08-01T15:51:10;26.80;80.30
54516;DHT22;40422;45.892;4.738;2023-08-01T15:53:36;26.80;80.30
54516;DHT22;40422;45.892;4.738;2023-08-01T15:56:09;26.70;80.30
54516;DHT22;40422;45.892;4.738;2023-08-01T15:58:36;26.70;80.60
54516;DHT22;40422;45.892;4.738;2023-08-01T16:01:02;26.60;80.60
54516;DHT22;40422;45.892;4.738;2023-08-01T16:03:28;26.60;80.50
54516;DHT22;40422;45.892;4.738;2023-08-01T16:05:54;26.50;81.10
54516;DHT22;40422;45.892;4.738;2023-08-01T16:08:20;26.40;80.70
54516;DHT22;40422;45.892;4.738;2023-08-01T16:10:46;26.40;81.30
54516;DHT22;40422;45.892;4.738;2023-08-01T16:13:12;26.40;81.20
54516;DHT22;40422;45.892;4.738;2023-08-01T16:15:39;26.30;81.30
54516;DHT22;40422;45.892;4.738;2023-08-01T16:18:05;26.20;81.20
54516;DHT22;40422;45.892;4.738;2023-08-01T16:20:32;26.10;82.00
54516;DHT22;40422;45.892;4.738;2023-08-01T16:22:57;26.00;82.20
54516;DHT22;40422;45.892;4.738;2023-08-01T16:25:23;26.00;82.50
54516;DHT22;40422;45.892;4.738;2023-08-01T16:27:50;26.00;82.80
54516;DHT22;40422;45.892;4.738;2023-08-01T16:30:15;26.00;82.50
54516;DHT22;40422;45.892;4.738;2023-08-01T16:32:41;25.90;82.70
54516;DHT22;40422;45.892;4.738;2023-08-01T16:35:07;25.80;82.40
54516;DHT22;40422;45.892;4.738;2023-08-01T16:37:33;25.80;83.20
54516;DHT22;40422;45.892;4.738;2023-08-01T16:39:58;25.80;83.30
54516;DHT22;40422;45.892;4.738;2023-08-01T16:42:25;25.90;83.50
54516;DHT22;40422;45.892;4.738;2023-08-01T16:44:50;25.80;83.00
54516;DHT22;40422;45.892;4.738;2023-08-01T16:47:17;25.80;83.00
54516;DHT22;40422;45.892;4.738;2023-08-01T16:49:46;25.80;82.90
54516;DHT22;40422;45.892;4.738;2023-08-01T16:52:16;25.80;82.90
54516;DHT22;40422;45.892;4.738;2023-08-01T16:54:41;25.80;82.10
54516;DHT22;40422;45.892;4.738;2023-08-01T16:57:07;25.60;81.80
54516;DHT22;40422;45.892;4.738;2023-08-01T16:59:37;25.50;82.50
54516;DHT22;40422;45.892;4.738;2023-08-01T17:02:03;25.50;82.30
54516;DHT22;40422;45.892;4.738;2023-08-01T17:04:30;25.50;82.50
54516;DHT22;40422;45.892;4.738;2023-08-01T17:06:56;25.50;82.90
54516;DHT22;40422;45.892;4.738;2023-08-01T17:09:21;25.60;83.10
54516;DHT22;40422;45.892;4.738;2023-08-01T17:11:47;25.60;82.20
54516;DHT22;40422;45.892;4.738;2023-08-01T17:14:13;25.60;82.30
54516;DHT22;40422;45.892;4.738;2023-08-01T17:16:38;25.50;82.50
54516;DHT22;40422;45.892;4.738;2023-08-01T17:19:04;25.50;83.00
54516;DHT22;40422;45.892;4.738;2023-08-01T17:21:30;25.50;83.10
54516;DHT22;40422;45.892;4.738;2023-08-01T17:23:56;25.50;83.70
54516;DHT22;40422;45.892;4.738;2023-08-01T17:26:22;25.50;83.60
54516;DHT22;40422;45.892;4.738;2023-08-01T17:28:48;25.50;83.60
54516;DHT22;40422;45.892;4.738;2023-08-01T17:31:13;25.50;84.10
54516;DHT22;40422;45.892;4.738;2023-08-01T17:33:39;25.40;84.10
54516;DHT22;40422;45.892;4.738;2023-08-01T17:36:05;25.20;84.70
54516;DHT22;40422;45.892;4.738;2023-08-01T17:38:31;25.20;85.40
54516;DHT22;40422;45.892;4.738;2023-08-01T17:41:15;25.10;85.70
54516;DHT22;40422;45.892;4.738;2023-08-01T17:43:41;25.10;86.00
54516;DHT22;40422;45.892;4.738;2023-08-01T17:46:07;25.00;86.10
54516;DHT22;40422;45.892;4.738;2023-08-01T17:48:33;25.00;86.00
54516;DHT22;40422;45.892;4.738;2023-08-01T17:50:58;24.90;86.30
54516;DHT22;40422;45.892;4.738;2023-08-01T17:53:24;24.90;86.60
54516;DHT22;40422;45.892;4.738;2023-08-01T17:55:49;24.90;86.80
54516;DHT22;40422;45.892;4.738;2023-08-01T17:58:15;24.90;87.00
54516;DHT22;40422;45.892;4.738;2023-08-01T18:00:41;24.80;86.80
54516;DHT22;40422;45.892;4.738;2023-08-01T18:03:06;24.70;87.10
54516;DHT22;40422;45.892;4.738;2023-08-01T18:05:32;24.70;87.40
54516;DHT22;40422;45.892;4.738;2023-08-01T18:07:57;24.70;87.70
54516;DHT22;40422;45.892;4.738;2023-08-01T18:10:23;24.60;87.40
54516;DHT22;40422;45.892;4.738;2023-08-01T18:12:51;24.50;87.90
54516;DHT22;40422;45.892;4.738;2023-08-01T18:15:17;24.50;88.00
54516;DHT22;40422;45.892;4.738;2023-08-01T18:17:43;24.50;87.60
54516;DHT22;40422;45.892;4.738;2023-08-01T18:20:09;24.60;88.40
54516;DHT22;40422;45.892;4.738;2023-08-01T18:22:35;24.50;87.80
54516;DHT22;40422;45.892;4.738;2023-08-01T18:25:01;24.50;88.20
54516;DHT22;40422;45.892;4.738;2023-08-01T18:27:26;24.50;88.30